Time;durP1;ratioP1;P1;durP2;ratioP2;P2;SDS_P1;SDS_P2;PMS_P1;PMS_P2;Temp;Humidity;BMP_temperature;BMP_pressure;BME280_temperature;BME280_humidity;BME280_pressure;Samples;Min_cycle;Max_cycle;Signal;HPM_P1;HPM_P2
2021/11/10 00:03:07;;;;;;;7.60;4.93;;;4.10;98.30;;;;;;8356359;28;20511;-77
2021/11/10 00:07:07;;;;;;;10.00;5.70;;;4.10;98.40;;;;;;8367181;28;20205;-77
2021/11/10 00:11:08;;;;;;;9.10;6.30;;;4.10;98.60;;;;;;8351551;28;20246;-77
2021/11/10 00:15:09;;;;;;;9.20;5.50;;;4.10;98.50;;;;;;8349662;28;20194;-77
2021/11/10 00:19:10;;;;;;;12.33;4.87;;;4.10;98.60;;;;;;8350896;28;20272;-77
2021/11/10 00:23:12;;;;;;;10.47;5.57;;;4.20;98.90;;;;;;8372082;28;20459;-77
2021/11/10 00:27:12;;;;;;;7.63;5.63;;;4.10;98.60;;;;;;8351466;28;20439;-77
2021/11/10 00:31:14;;;;;;;10.90;6.20;;;4.10;98.50;;;;;;8360446;28;20560;-76
2021/11/10 00:35:15;;;;;;;6.47;5.43;;;4.10;98.40;;;;;;8353224;28;20190;-77
2021/11/10 00:39:15;;;;;;;9.57;5.50;;;4.20;98.60;;;;;;8352514;28;20563;-77
2021/11/10 00:43:16;;;;;;;7.53;5.10;;;4.20;98.50;;;;;;8370917;28;20196;-76
2021/11/10 00:47:16;;;;;;;15.00;5.30;;;4.10;98.50;;;;;;8368361;28;20705;-77
2021/11/10 00:51:17;;;;;;;10.97;5.67;;;4.10;98.40;;;;;;8369777;28;20244;-78
2021/11/10 00:55:18;;;;;;;11.10;5.87;;;4.00;98.20;;;;;;8382478;28;20216;-78
2021/11/10 00:59:18;;;;;;;16.47;4.67;;;3.90;98.20;;;;;;8365633;28;20262;-77
2021/11/10 01:03:20;;;;;;;11.13;4.80;;;3.90;98.30;;;;;;8346570;28;20232;-78
2021/11/10 01:07:20;;;;;;;6.90;4.20;;;3.90;98.60;;;;;;8366729;28;20191;-77
2021/11/10 01:11:21;;;;;;;8.00;5.37;;;4.00;98.80;;;;;;8371258;28;20987;-77
2021/11/10 01:15:22;;;;;;;7.60;4.90;;;4.10;98.70;;;;;;8367922;28;20294;-77
2021/11/10 01:19:23;;;;;;;5.23;4.73;;;4.00;98.40;;;;;;8348384;28;20213;-77
2021/11/10 01:23:24;;;;;;;8.93;4.60;;;4.00;98.50;;;;;;8370993;28;20454;-77
2021/11/10 01:27:26;;;;;;;7.27;4.00;;;3.80;98.10;;;;;;8357279;28;20440;-78
2021/11/10 01:31:26;;;;;;;14.60;5.63;;;3.80;98.10;;;;;;8354157;28;20572;-76
2021/11/10 01:35:28;;;;;;;9.43;6.23;;;3.70;98.30;;;;;;8370972;28;20452;-77
2021/11/10 01:39:29;;;;;;;16.43;6.97;;;3.70;98.70;;;;;;8377017;28;20197;-77
2021/11/10 01:43:32;;;;;;;6.87;5.43;;;3.80;99.30;;;;;;8380013;28;21838;-77
2021/11/10 01:47:33;;;;;;;11.47;5.97;;;4.10;99.40;;;;;;8371745;28;20434;-77
2021/11/10 01:51:33;;;;;;;12.67;6.67;;;4.30;99.50;;;;;;8373756;28;21089;-77
2021/11/10 01:55:34;;;;;;;9.83;6.27;;;4.40;99.60;;;;;;8377462;28;20981;-77
2021/11/10 01:59:46;;;;;;;11.00;6.10;;;4.50;99.60;;;;;;8373735;28;20196;-77
2021/11/10 02:03:47;;;;;;;9.83;5.70;;;4.60;99.50;;;;;;8368045;28;20223;-76
2021/11/10 02:07:49;;;;;;;8.33;5.30;;;4.60;99.30;;;;;;8371968;28;20444;-77
2021/11/10 02:11:53;;;;;;;12.90;5.63;;;4.70;99.40;;;;;;8354520;28;20476;-77
2021/11/10 02:15:53;;;;;;;7.30;5.00;;;4.70;99.30;;;;;;8349537;28;20772;-77
2021/11/10 02:19:54;;;;;;;6.17;5.10;;;4.70;99.30;;;;;;8370688;28;20443;-77
2021/11/10 02:23:57;;;;;;;6.67;4.63;;;4.60;99.10;;;;;;8351810;28;20190;-77
2021/11/10 02:27:58;;;;;;;4.00;3.63;;;4.60;98.80;;;;;;8365292;28;20258;-76
2021/11/10 02:31:58;;;;;;;8.13;4.63;;;4.40;98.40;;;;;;8365926;28;20960;-77
2021/11/10 02:36:04;;;;;;;10.97;5.80;;;4.30;98.40;;;;;;8386768;28;20457;-78
2021/11/10 02:40:05;;;;;;;6.40;4.30;;;4.20;98.50;;;;;;8391285;28;20245;-77
2021/11/10 02:44:06;;;;;;;4.60;3.67;;;4.10;98.50;;;;;;8369989;28;20440;-77
2021/11/10 02:48:09;;;;;;;5.60;4.03;;;4.10;98.40;;;;;;8363528;28;20436;-77
2021/11/10 02:52:23;;;;;;;10.17;4.97;;;4.00;98.60;;;;;;8372718;28;20484;-79
2021/11/10 02:56:24;;;;;;;13.87;6.07;;;4.10;98.90;;;;;;8383083;28;21340;-78
2021/11/10 03:00:26;;;;;;;10.60;5.93;;;4.20;99.20;;;;;;8368783;28;20438;-78
2021/11/10 03:04:36;;;;;;;8.50;5.00;;;4.30;99.20;;;;;;8370238;28;20396;-77
2021/11/10 03:08:40;;;;;;;12.37;5.90;;;4.30;99.20;;;;;;8389627;28;20444;-78
2021/11/10 03:12:41;;;;;;;12.70;5.90;;;4.30;99.20;;;;;;8376271;28;20855;-77
2021/11/10 03:16:42;;;;;;;8.87;6.50;;;4.40;99.10;;;;;;8374732;28;20454;-77
2021/11/10 03:20:44;;;;;;;5.00;4.50;;;4.50;99.20;;;;;;8385924;28;20443;-76
2021/11/10 03:24:45;;;;;;;6.80;4.30;;;4.50;98.90;;;;;;8357536;28;20929;-77
2021/11/10 03:28:45;;;;;;;16.90;6.50;;;4.50;98.90;;;;;;8358864;28;20514;-77
2021/11/10 03:32:47;;;;;;;8.40;5.63;;;4.60;98.90;;;;;;8361856;28;20475;-78
2021/11/10 03:36:49;;;;;;;7.43;5.77;;;4.60;98.80;;;;;;8356766;28;20783;-77
2021/11/10 03:40:49;;;;;;;9.13;4.43;;;4.60;98.50;;;;;;8358011;28;20444;-78
2021/11/10 03:44:50;;;;;;;9.53;5.23;;;4.50;98.30;;;;;;8352060;28;20980;-78
2021/11/10 03:48:51;;;;;;;16.30;6.97;;;4.40;98.10;;;;;;8374528;28;20256;-78
2021/11/10 03:52:51;;;;;;;10.90;6.00;;;4.30;98.40;;;;;;8373153;28;20216;-77
2021/11/10 03:56:52;;;;;;;6.90;4.80;;;4.40;98.70;;;;;;8372446;28;20193;-77
2021/11/10 04:00:52;;;;;;;10.47;6.10;;;4.30;98.60;;;;;;8350464;28;20190;-76
2021/11/10 04:04:53;;;;;;;9.20;5.50;;;4.30;98.50;;;;;;8353527;28;20237;-77
2021/11/10 04:08:54;;;;;;;10.37;6.17;;;4.20;98.60;;;;;;8358088;28;20726;-77
2021/11/10 04:12:55;;;;;;;10.47;5.70;;;4.10;98.30;;;;;;8375095;28;20312;-77
2021/11/10 04:16:55;;;;;;;7.13;5.43;;;4.10;98.30;;;;;;8370947;28;20521;-77
2021/11/10 04:20:56;;;;;;;7.73;5.13;;;4.00;98.10;;;;;;8362716;28;22618;-77
2021/11/10 04:24:56;;;;;;;16.63;5.20;;;4.00;98.20;;;;;;8374362;28;20414;-78
2021/11/10 04:28:58;;;;;;;10.03;5.50;;;3.90;98.00;;;;;;8361435;28;20619;-78
2021/11/10 04:32:58;;;;;;;8.30;5.10;;;3.90;98.00;;;;;;8377809;28;20759;-79
2021/11/10 04:36:59;;;;;;;16.57;6.13;;;3.80;97.90;;;;;;8375392;28;20472;-78
2021/11/10 04:41:00;;;;;;;11.77;6.33;;;3.70;97.90;;;;;;8364738;28;20189;-76
2021/11/10 04:45:06;;;;;;;8.00;5.63;;;3.70;98.20;;;;;;8370461;28;20185;-77
2021/11/10 04:49:07;;;;;;;15.47;6.47;;;3.70;98.20;;;;;;8358348;28;21912;-76
2021/11/10 04:53:09;;;;;;;11.07;7.50;;;3.60;98.20;;;;;;8352377;28;20530;-77
2021/11/10 04:57:10;;;;;;;12.77;8.00;;;3.60;98.30;;;;;;8353043;28;20200;-76
2021/11/10 05:01:26;;;;;;;14.70;6.47;;;3.60;98.50;;;;;;8351829;28;22293;-77
2021/11/10 05:05:26;;;;;;;19.40;7.30;;;3.70;98.60;;;;;;8354220;28;20478;-77
2021/11/10 05:09:27;;;;;;;13.50;6.67;;;3.70;98.50;;;;;;8373120;28;20442;-77
2021/11/10 05:13:28;;;;;;;9.97;5.87;;;3.70;98.30;;;;;;8374675;28;20272;-77
2021/11/10 05:17:28;;;;;;;14.50;6.03;;;3.60;98.20;;;;;;8378826;28;21103;-76
2021/11/10 05:21:29;;;;;;;13.03;6.90;;;3.60;98.10;;;;;;8355235;28;20246;-77
2021/11/10 05:25:30;;;;;;;8.03;6.20;;;3.50;98.00;;;;;;8381994;28;20190;-75
2021/11/10 05:29:30;;;;;;;16.60;6.17;;;3.40;98.00;;;;;;8377259;28;20505;-76
2021/11/10 05:33:31;;;;;;;5.97;4.97;;;3.30;98.10;;;;;;8382452;28;20212;-76
2021/11/10 05:37:32;;;;;;;11.93;6.80;;;3.20;98.10;;;;;;8366228;28;20197;-77
2021/11/10 05:41:33;;;;;;;9.20;6.10;;;3.20;98.10;;;;;;8361853;28;20201;-77
2021/11/10 05:45:34;;;;;;;13.93;6.80;;;3.10;98.50;;;;;;8365406;28;20432;-77
2021/11/10 05:49:35;;;;;;;16.00;7.80;;;3.10;98.80;;;;;;8347384;28;20998;-78
2021/11/10 05:53:38;;;;;;;11.47;7.17;;;3.20;98.90;;;;;;8371216;28;20469;-76
2021/11/10 05:57:39;;;;;;;9.80;7.13;;;3.20;98.80;;;;;;8391800;28;20546;-77
2021/11/10 06:01:40;;;;;;;16.63;6.57;;;3.20;98.60;;;;;;8357529;28;20531;-76
2021/11/10 06:05:40;;;;;;;15.83;6.50;;;3.20;98.60;;;;;;8363023;28;20477;-76
2021/11/10 06:09:41;;;;;;;12.63;6.90;;;3.20;98.70;;;;;;8374278;28;20186;-78
2021/11/10 06:13:42;;;;;;;7.07;5.03;;;3.10;98.70;;;;;;8378303;28;20215;-77
2021/11/10 06:17:43;;;;;;;14.43;7.63;;;3.10;98.70;;;;;;8371638;28;20613;-76
2021/11/10 06:21:45;;;;;;;12.73;7.00;;;3.00;98.70;;;;;;8361052;28;20621;-76
2021/11/10 06:25:45;;;;;;;9.97;6.07;;;3.10;98.60;;;;;;8367446;28;20542;-78
2021/11/10 06:29:46;;;;;;;9.47;6.50;;;3.00;98.50;;;;;;8383676;28;20500;-76
2021/11/10 06:33:48;;;;;;;13.03;6.80;;;3.00;98.50;;;;;;8377260;28;20590;-76
2021/11/10 06:37:49;;;;;;;11.10;6.63;;;2.90;98.50;;;;;;8382363;28;20663;-77
2021/11/10 06:41:50;;;;;;;12.10;6.93;;;2.90;98.70;;;;;;8357691;28;20479;-78
2021/11/10 06:45:52;;;;;;;8.93;5.47;;;3.00;98.80;;;;;;8361907;28;20536;-77
2021/11/10 06:49:53;;;;;;;9.13;6.53;;;3.00;99.00;;;;;;8359630;28;20248;-78
2021/11/10 06:53:53;;;;;;;15.10;6.50;;;3.10;99.20;;;;;;8352701;28;20947;-78
2021/11/10 06:57:54;;;;;;;22.23;6.90;;;3.20;99.50;;;;;;8352307;28;20471;-77
2021/11/10 07:01:55;;;;;;;16.37;8.97;;;3.40;99.70;;;;;;8352666;28;20184;-78
2021/11/10 07:05:56;;;;;;;13.23;7.73;;;3.60;99.80;;;;;;8350523;28;20696;-77
2021/11/10 07:09:57;;;;;;;16.43;7.77;;;3.80;99.90;;;;;;8369422;28;20486;-78
2021/11/10 07:13:57;;;;;;;20.27;8.30;;;4.00;99.90;;;;;;8379694;28;20346;-77
2021/11/10 07:17:58;;;;;;;13.50;8.10;;;4.20;99.90;;;;;;8372776;28;20185;-78
2021/11/10 07:21:59;;;;;;;14.20;8.10;;;4.40;99.90;;;;;;8369264;28;20444;-77
2021/11/10 07:25:59;;;;;;;16.80;8.57;;;4.50;99.90;;;;;;8375570;28;20190;-78
2021/11/10 07:30:01;;;;;;;22.00;8.87;;;4.60;99.90;;;;;;8357313;28;20666;-77
2021/11/10 07:34:02;;;;;;;14.60;8.37;;;4.70;99.90;;;;;;8371789;28;20918;-77
2021/11/10 07:38:03;;;;;;;12.60;8.47;;;4.80;99.90;;;;;;8380012;28;20448;-77
2021/11/10 07:42:05;;;;;;;14.77;7.20;;;4.90;99.90;;;;;;8359961;28;20441;-77
2021/11/10 07:46:14;;;;;;;9.13;6.03;;;5.00;99.90;;;;;;8361933;28;20449;-79
2021/11/10 07:50:17;;;;;;;13.27;6.30;;;5.60;99.90;;;;;;8368305;28;20483;-77
2021/11/10 07:54:18;;;;;;;8.07;5.90;;;6.60;99.60;;;;;;8360632;28;20532;-78
2021/11/10 07:58:18;;;;;;;11.33;5.33;;;7.60;98.10;;;;;;8378863;28;20468;-79
2021/11/10 08:02:21;;;;;;;6.70;3.77;;;8.30;96.80;;;;;;8377967;28;20195;-78
2021/11/10 08:06:22;;;;;;;14.90;5.83;;;8.70;95.90;;;;;;8380015;28;20937;-77
2021/11/10 08:10:22;;;;;;;7.90;4.37;;;9.00;95.10;;;;;;8353798;28;20478;-78
2021/11/10 08:14:23;;;;;;;7.63;5.70;;;9.30;94.60;;;;;;8380405;28;20194;-76
2021/11/10 08:18:25;;;;;;;13.57;5.73;;;9.50;94.50;;;;;;8380816;28;20186;-77
2021/11/10 08:22:25;;;;;;;12.20;5.80;;;9.70;94.40;;;;;;8384044;28;20182;-77
2021/11/10 08:26:26;;;;;;;11.73;5.80;;;10.00;93.60;;;;;;8381358;28;20447;-78
2021/11/10 08:30:27;;;;;;;10.40;7.00;;;10.70;92.30;;;;;;8377731;28;21574;-78
2021/11/10 08:34:28;;;;;;;11.30;6.20;;;11.50;90.40;;;;;;8358793;28;20443;-77
2021/11/10 08:38:29;;;;;;;8.00;5.77;;;12.40;86.40;;;;;;8377151;28;20290;-78
2021/11/10 08:42:33;;;;;;;10.03;6.00;;;12.70;84.00;;;;;;8373135;28;20200;-78
2021/11/10 08:46:34;;;;;;;13.40;6.67;;;12.90;83.20;;;;;;8357708;28;20963;-77
2021/11/10 08:50:37;;;;;;;10.97;6.07;;;13.30;82.00;;;;;;8374799;28;20527;-76
2021/11/10 08:54:38;;;;;;;15.23;6.47;;;13.50;81.10;;;;;;8358297;28;20191;-76
2021/11/10 08:58:39;;;;;;;12.90;6.37;;;13.80;79.80;;;;;;8372822;28;20439;-76
2021/11/10 09:02:40;;;;;;;5.80;4.90;;;13.80;79.90;;;;;;8357785;28;20187;-77
2021/11/10 09:06:41;;;;;;;8.47;5.83;;;13.90;79.80;;;;;;8370141;28;20438;-78
2021/11/10 09:10:42;;;;;;;14.73;5.80;;;13.90;80.20;;;;;;8361756;28;21160;-77
2021/11/10 09:14:43;;;;;;;8.27;6.70;;;13.60;80.80;;;;;;8376943;28;20535;-77
2021/11/10 09:18:44;;;;;;;10.27;6.30;;;13.10;81.70;;;;;;8372702;28;20440;-76
2021/11/10 09:22:45;;;;;;;12.73;6.70;;;12.70;83.20;;;;;;8379480;28;20194;-78
2021/11/10 09:26:47;;;;;;;11.90;5.70;;;12.60;83.40;;;;;;8355547;28;20190;-77
2021/11/10 09:30:52;;;;;;;8.50;5.90;;;12.80;82.50;;;;;;8357941;28;20514;-77
2021/11/10 09:34:52;;;;;;;7.50;6.13;;;13.00;82.40;;;;;;8378705;28;20499;-76
2021/11/10 09:38:54;;;;;;;11.63;5.40;;;13.00;82.10;;;;;;8376743;28;20459;-77
2021/11/10 09:42:56;;;;;;;6.27;5.53;;;13.00;82.20;;;;;;8383226;28;20268;-77
2021/11/10 09:47:00;;;;;;;12.50;6.47;;;13.10;82.00;;;;;;8374727;28;20438;-77
2021/11/10 09:51:02;;;;;;;11.57;6.70;;;13.00;82.20;;;;;;8362267;28;20465;-76
2021/11/10 09:55:04;;;;;;;8.77;5.97;;;13.00;82.60;;;;;;8359562;28;20438;-77
2021/11/10 09:59:05;;;;;;;8.93;5.80;;;13.10;82.60;;;;;;8379252;28;20507;-76
2021/11/10 10:03:05;;;;;;;14.63;6.63;;;13.20;82.50;;;;;;8376196;28;20530;-76
2021/11/10 10:07:08;;;;;;;8.17;5.57;;;13.10;80.40;;;;;;8378433;28;20246;-77
2021/11/10 10:11:09;;;;;;;15.00;7.70;;;13.10;81.50;;;;;;8373873;28;20227;-76
2021/11/10 10:15:10;;;;;;;11.33;6.03;;;12.90;82.00;;;;;;8377994;28;20448;-76
2021/11/10 10:19:13;;;;;;;11.03;6.70;;;12.70;82.30;;;;;;8395977;28;20440;-77
2021/11/10 10:23:18;;;;;;;9.90;7.00;;;12.40;83.40;;;;;;8363503;28;20433;-77
2021/11/10 10:27:26;;;;;;;10.03;6.13;;;12.20;84.30;;;;;;8383925;28;21204;-76
2021/11/10 10:31:29;;;;;;;10.97;6.40;;;11.90;85.00;;;;;;8379865;28;20474;-76
2021/11/10 10:35:32;;;;;;;14.17;6.60;;;11.70;86.20;;;;;;8383162;28;20456;-76
2021/11/10 10:39:33;;;;;;;10.70;7.53;;;11.40;87.60;;;;;;8380805;28;20443;-76
2021/11/10 10:43:41;;;;;;;10.40;8.53;;;11.40;88.40;;;;;;8379153;28;20447;-76
2021/11/10 10:48:08;;;;;;;10.13;6.43;;;11.40;88.20;;;;;;8387171;28;20245;-76
2021/11/10 10:52:18;;;;;;;13.20;6.60;;;11.30;88.60;;;;;;8372375;28;20471;-76
2021/11/10 10:56:29;;;;;;;10.70;7.00;;;11.40;88.70;;;;;;8368654;28;21078;-77
2021/11/10 11:00:30;;;;;;;10.90;6.63;;;11.50;88.60;;;;;;8362476;28;20443;-76
2021/11/10 11:04:32;;;;;;;12.90;8.07;;;11.60;88.20;;;;;;8385044;28;21297;-76
2021/11/10 11:08:36;;;;;;;18.40;7.10;;;11.80;88.30;;;;;;8368143;28;20532;-77
2021/11/10 11:12:50;;;;;;;16.13;8.40;;;12.20;87.90;;;;;;8379787;28;20659;-76
2021/11/10 11:17:03;;;;;;;17.03;7.03;;;12.40;87.20;;;;;;8379318;28;20473;-76
2021/11/10 11:21:25;;;;;;;10.30;7.53;;;12.40;87.10;;;;;;8377692;28;20844;-77
2021/11/10 11:25:37;;;;;;;14.57;7.87;;;12.50;87.10;;;;;;8357106;28;20896;-77
2021/11/10 11:29:38;;;;;;;9.90;7.00;;;12.60;86.80;;;;;;8376128;28;20446;-76
2021/11/10 11:33:39;;;;;;;9.47;6.00;;;13.00;87.10;;;;;;8357869;28;20464;-76
2021/11/10 11:37:41;;;;;;;10.20;6.00;;;13.60;85.90;;;;;;8376730;28;20190;-76
2021/11/10 11:41:42;;;;;;;10.87;6.30;;;13.80;84.90;;;;;;8383013;28;20995;-77
2021/11/10 11:45:45;;;;;;;7.03;5.70;;;14.00;84.20;;;;;;8356753;28;20439;-76
2021/11/10 11:49:47;;;;;;;12.50;6.63;;;14.30;83.50;;;;;;8356688;28;20194;-76
2021/11/10 11:53:49;;;;;;;11.00;7.00;;;14.40;82.80;;;;;;8378608;28;20487;-75
2021/11/10 11:58:04;;;;;;;13.40;6.33;;;14.30;81.90;;;;;;8372342;28;20445;-76
2021/11/10 12:02:35;;;;;;;9.87;6.07;;;13.90;81.90;;;;;;8370357;28;20442;-76
2021/11/10 12:06:51;;;;;;;11.03;6.77;;;13.70;82.90;;;;;;8376939;28;20931;-77
2021/11/10 12:10:52;;;;;;;10.80;7.37;;;13.60;83.90;;;;;;8385316;28;20469;-76
2021/11/10 12:14:58;;;;;;;10.30;5.90;;;13.70;84.10;;;;;;8354729;28;20492;-76
2021/11/10 12:19:02;;;;;;;15.87;7.50;;;13.60;83.30;;;;;;8364481;28;20536;-76
2021/11/10 12:23:03;;;;;;;11.97;7.40;;;13.40;84.50;;;;;;8371420;28;20473;-77
2021/11/10 12:27:32;;;;;;;14.33;7.67;;;13.40;84.20;;;;;;8365870;28;20460;-76
2021/11/10 12:31:36;;;;;;;12.13;8.13;;;13.40;84.60;;;;;;8390947;28;20499;-77
2021/11/10 12:35:51;;;;;;;12.00;6.97;;;13.10;84.60;;;;;;8369603;28;20456;-76
2021/11/10 12:40:15;;;;;;;19.20;8.03;;;12.80;85.70;;;;;;8343817;28;20480;-77
2021/11/10 12:44:30;;;;;;;19.10;7.87;;;12.70;85.60;;;;;;8345746;28;20462;-76
2021/11/10 12:48:33;;;;;;;11.03;7.20;;;12.60;85.90;;;;;;8334413;28;20439;-76
2021/11/10 12:52:45;;;;;;;11.03;6.43;;;12.60;85.70;;;;;;8353423;28;20468;-77
2021/11/10 12:56:53;;;;;;;13.83;6.50;;;12.50;85.60;;;;;;8341795;28;20477;-76
2021/11/10 13:00:57;;;;;;;12.43;7.83;;;12.50;85.70;;;;;;8354907;28;20569;-77
2021/11/10 13:05:02;;;;;;;11.87;6.77;;;12.60;85.50;;;;;;8367902;28;20481;-77
2021/11/10 13:09:24;;;;;;;11.63;7.23;;;12.60;85.30;;;;;;8347441;28;20460;-78
2021/11/10 13:13:36;;;;;;;13.77;7.18;;;12.50;85.10;;;;;;6384915;28;10002912;-77
2021/11/10 13:17:38;;;;;;;19.50;8.43;;;12.50;85.40;;;;;;5923048;28;10002103;-79
2021/11/10 13:21:54;;;;;;;13.73;6.40;;;12.50;85.40;;;;;;8355006;28;20542;-77
2021/11/10 13:25:54;;;;;;;10.17;7.43;;;12.50;85.10;;;;;;8354617;28;21164;-77
2021/11/10 13:29:55;;;;;;;10.40;6.57;;;12.50;84.50;;;;;;8356516;28;20455;-76
2021/11/10 13:33:56;;;;;;;11.53;7.00;;;12.60;85.00;;;;;;8359366;28;20196;-77
2021/11/10 13:37:57;;;;;;;12.00;6.53;;;12.60;84.10;;;;;;8344127;28;20199;-77
2021/11/10 13:41:57;;;;;;;13.07;7.60;;;12.50;83.70;;;;;;8362594;28;20458;-77
2021/11/10 13:45:58;;;;;;;15.17;5.70;;;12.60;83.80;;;;;;8360836;28;20722;-77
2021/11/10 13:49:59;;;;;;;11.00;7.20;;;12.80;83.40;;;;;;8367382;28;20447;-77
2021/11/10 13:54:14;;;;;;;8.73;6.10;;;12.90;82.20;;;;;;8342847;28;20814;-76
2021/11/10 13:58:19;;;;;;;16.73;7.07;;;12.90;82.30;;;;;;8358219;28;20265;-77
2021/11/10 14:02:37;;;;;;;9.70;5.80;;;13.00;82.00;;;;;;8345438;28;20447;-77
2021/11/10 14:07:03;;;;;;;12.10;6.57;;;12.90;81.80;;;;;;8354513;28;20452;-76
2021/11/10 14:11:06;;;;;;;15.20;7.40;;;12.90;82.40;;;;;;8349247;28;20885;-77
2021/11/10 14:15:12;;;;;;;11.53;6.93;;;12.80;82.60;;;;;;8359402;28;20586;-76
2021/11/10 14:19:15;;;;;;;11.17;7.70;;;12.60;83.10;;;;;;8351612;28;20484;-77
2021/11/10 14:23:30;;;;;;;12.87;7.90;;;12.50;84.40;;;;;;8344531;28;20502;-77
2021/11/10 14:27:35;;;;;;;14.63;7.53;;;12.50;85.20;;;;;;8330047;28;20461;-76
2021/11/10 14:31:45;;;;;;;15.80;7.80;;;12.50;85.40;;;;;;8353135;28;20480;-77
2021/11/10 14:35:53;;;;;;;15.47;6.90;;;12.60;86.10;;;;;;8338243;28;21251;-77
2021/11/10 14:39:54;;;;;;;10.70;7.20;;;12.80;85.90;;;;;;8348726;28;20447;-78
2021/11/10 14:43:59;;;;;;;14.30;6.97;;;12.80;85.40;;;;;;8351709;28;20508;-77
2021/11/10 14:47:59;;;;;;;13.47;8.00;;;12.70;84.70;;;;;;8356511;28;20486;-77
2021/11/10 14:52:12;;;;;;;10.17;7.20;;;12.60;85.30;;;;;;8341334;28;20474;-77
2021/11/10 14:56:16;;;;;;;10.50;6.37;;;12.70;85.80;;;;;;8363776;28;20549;-77
2021/11/10 15:00:16;;;;;;;17.40;8.60;;;12.70;85.70;;;;;;8353986;28;20439;-77
2021/11/10 15:04:20;;;;;;;13.70;7.90;;;12.60;84.10;;;;;;8361053;28;20486;-77
2021/11/10 15:08:22;;;;;;;11.27;7.17;;;12.60;85.90;;;;;;8347886;28;20188;-77
2021/11/10 15:12:26;;;;;;;14.40;7.77;;;12.50;86.10;;;;;;8360791;28;20504;-77
2021/11/10 15:16:34;;;;;;;15.33;7.80;;;12.30;86.30;;;;;;8358870;28;21191;-78
2021/11/10 15:20:34;;;;;;;15.43;6.90;;;12.20;87.30;;;;;;8357950;28;20442;-77
2021/11/10 15:24:35;;;;;;;18.37;8.90;;;12.00;87.20;;;;;;8341655;28;20551;-78
2021/11/10 15:28:37;;;;;;;14.93;8.47;;;11.80;88.00;;;;;;8351638;28;20269;-77
2021/11/10 15:32:38;;;;;;;20.00;8.80;;;11.60;88.70;;;;;;8358592;28;20562;-78
2021/11/10 15:36:40;;;;;;;11.60;7.83;;;11.40;89.00;;;;;;8344077;28;20552;-77
2021/11/10 15:40:43;;;;;;;15.23;7.80;;;11.30;90.40;;;;;;8334088;28;20195;-78
2021/11/10 15:44:43;;;;;;;14.30;7.70;;;11.10;90.80;;;;;;8337179;28;20917;-77
2021/11/10 15:48:44;;;;;;;23.73;10.70;;;10.90;91.00;;;;;;8346536;28;20545;-78
2021/11/10 15:52:47;;;;;;;19.30;11.70;;;10.70;91.30;;;;;;8362805;28;20743;-78
2021/11/10 15:56:48;;;;;;;17.60;13.10;;;10.50;91.80;;;;;;8336519;28;20190;-78
2021/11/10 16:00:50;;;;;;;20.77;13.47;;;10.20;91.70;;;;;;8335750;28;20444;-76
2021/11/10 16:04:50;;;;;;;19.83;14.70;;;10.10;91.90;;;;;;8343294;28;20579;-77
2021/11/10 16:08:51;;;;;;;19.83;11.53;;;9.90;92.20;;;;;;8341829;28;20808;-76
2021/11/10 16:12:52;;;;;;;29.53;17.00;;;9.80;92.40;;;;;;8362242;28;20511;-77
2021/11/10 16:16:53;;;;;;;22.73;14.63;;;9.70;92.60;;;;;;8364764;28;20196;-78
2021/11/10 16:20:55;;;;;;;21.23;11.70;;;9.60;92.80;;;;;;8344081;28;20213;-76
2021/11/10 16:24:56;;;;;;;19.00;11.67;;;9.50;92.90;;;;;;8363315;28;21271;-79
2021/11/10 16:29:01;;;;;;;26.63;14.67;;;9.40;93.10;;;;;;8358619;28;20509;-76
2021/11/10 16:33:08;;;;;;;22.13;14.33;;;9.20;93.30;;;;;;8359553;28;20222;-77
2021/11/10 16:37:09;;;;;;;22.50;13.40;;;9.10;93.80;;;;;;8356731;28;20484;-77
2021/11/10 16:41:11;;;;;;;23.17;12.00;;;9.00;93.90;;;;;;8371921;28;20586;-77
2021/11/10 16:45:12;;;;;;;17.90;10.80;;;8.90;94.10;;;;;;8371415;28;20440;-77
2021/11/10 16:49:12;;;;;;;25.90;12.60;;;8.80;94.40;;;;;;8371279;28;20502;-77
2021/11/10 16:53:13;;;;;;;14.47;10.47;;;8.60;94.50;;;;;;8367377;28;20751;-78
2021/11/10 16:57:14;;;;;;;17.97;11.93;;;8.60;94.60;;;;;;8364468;28;20204;-77
2021/11/10 17:01:15;;;;;;;23.90;12.70;;;8.50;94.80;;;;;;8365478;28;20219;-77
2021/11/10 17:05:16;;;;;;;15.47;9.07;;;8.40;94.90;;;;;;8361410;28;20225;-77
2021/11/10 17:09:17;;;;;;;21.53;10.00;;;8.30;95.00;;;;;;8366364;28;20444;-77
2021/11/10 17:13:17;;;;;;;18.83;8.73;;;8.20;95.20;;;;;;8362786;28;20217;-77
2021/11/10 17:17:18;;;;;;;14.67;9.37;;;8.00;95.50;;;;;;8349782;28;20193;-77
2021/11/10 17:21:18;;;;;;;19.15;10.38;;;7.90;95.60;;;;;;8342495;28;20448;-77
2021/11/10 17:25:19;;;;;;;21.20;10.10;;;7.80;95.70;;;;;;8338770;28;20185;-77
2021/11/10 17:29:20;;;;;;;16.67;8.97;;;7.80;95.90;;;;;;8344956;28;20667;-77
2021/11/10 17:33:21;;;;;;;18.80;9.30;;;7.70;95.90;;;;;;8342847;28;20690;-77
2021/11/10 17:37:21;;;;;;;16.87;10.40;;;7.60;96.00;;;;;;8368167;28;21597;-77
2021/11/10 17:41:22;;;;;;;16.40;9.10;;;7.50;96.00;;;;;;8361546;28;20465;-78
2021/11/10 17:45:23;;;;;;;16.93;10.27;;;7.30;96.00;;;;;;8360286;28;20218;-77
2021/11/10 17:49:24;;;;;;;35.20;15.27;;;7.20;96.10;;;;;;8364655;28;20191;-77
2021/11/10 17:53:24;;;;;;;22.03;13.10;;;7.10;96.20;;;;;;8356791;28;20465;-77
2021/11/10 17:57:25;;;;;;;33.77;15.57;;;7.00;96.30;;;;;;8339710;28;20195;-77
2021/11/10 18:01:25;;;;;;;28.97;13.20;;;6.90;96.60;;;;;;8359615;28;20520;-77
2021/11/10 18:05:26;;;;;;;23.90;13.43;;;6.90;96.70;;;;;;8361000;28;20280;-77
2021/11/10 18:09:28;;;;;;;22.60;13.10;;;6.80;96.90;;;;;;8355721;28;20226;-77
2021/11/10 18:13:29;;;;;;;21.40;13.50;;;6.70;96.90;;;;;;8359645;28;20950;-76
2021/11/10 18:17:30;;;;;;;22.30;15.23;;;6.60;97.00;;;;;;8339399;28;20494;-77
2021/11/10 18:21:31;;;;;;;36.60;16.33;;;6.50;96.90;;;;;;8356572;28;20643;-78
2021/11/10 18:25:32;;;;;;;35.23;15.07;;;6.50;97.00;;;;;;8359733;28;20772;-78
2021/11/10 18:29:33;;;;;;;24.90;14.23;;;6.40;97.00;;;;;;8363265;28;20456;-76
2021/11/10 18:33:33;;;;;;;27.37;14.30;;;6.30;97.10;;;;;;8366596;28;20473;-77
2021/11/10 18:37:34;;;;;;;35.43;14.63;;;6.20;97.30;;;;;;8345287;28;20282;-77
2021/11/10 18:41:35;;;;;;;31.23;14.80;;;6.10;97.40;;;;;;8359497;28;20613;-76
2021/11/10 18:45:36;;;;;;;22.17;12.87;;;6.10;97.60;;;;;;8357337;28;20221;-79
2021/11/10 18:49:37;;;;;;;32.40;17.20;;;6.00;97.60;;;;;;8368803;28;20479;-77
2021/11/10 18:53:39;;;;;;;25.10;13.17;;;5.90;97.70;;;;;;8343536;28;20227;-78
2021/11/10 18:57:41;;;;;;;16.63;12.47;;;5.80;97.60;;;;;;8360279;28;20445;-78
2021/11/10 19:01:50;;;;;;;19.73;12.43;;;5.80;97.60;;;;;;8371542;28;20456;-78
2021/11/10 19:10:04;;;;;;;25.30;15.30;;;5.60;97.80;;;;;;8363160;28;20941;-78
2021/11/10 19:14:31;;;;;;;17.93;12.90;;;5.50;97.80;;;;;;8345589;28;20477;-77
2021/11/10 19:18:46;;;;;;;30.37;14.07;;;5.50;97.90;;;;;;8363531;28;20510;-76
2021/11/10 19:22:48;;;;;;;22.37;14.40;;;5.40;97.80;;;;;;8362184;28;20555;-77
2021/11/10 19:26:49;;;;;;;26.67;14.40;;;5.30;98.00;;;;;;8363953;28;20445;-79
2021/11/10 19:30:50;;;;;;;29.80;15.67;;;5.30;98.10;;;;;;8343269;28;20470;-76
2021/11/10 19:34:50;;;;;;;40.60;19.57;;;5.20;98.10;;;;;;8358257;28;21224;-79
2021/11/10 19:38:53;;;;;;;27.57;16.03;;;5.20;98.00;;;;;;8347832;28;21056;-77
2021/11/10 19:42:55;;;;;;;30.93;18.10;;;5.10;97.90;;;;;;8367263;28;20638;-78
2021/11/10 19:46:56;;;;;;;32.50;15.70;;;5.10;98.00;;;;;;8345049;28;20449;-78
2021/11/10 19:50:57;;;;;;;36.00;17.30;;;5.00;98.00;;;;;;8349074;28;20475;-78
2021/11/10 19:55:04;;;;;;;21.37;16.27;;;4.90;98.00;;;;;;8342991;28;20186;-79
2021/11/10 19:59:05;;;;;;;27.70;17.53;;;4.90;98.10;;;;;;8342692;28;20455;-78
2021/11/10 20:03:08;;;;;;;32.87;16.17;;;4.80;98.10;;;;;;8361010;28;20598;-76
2021/11/10 20:07:09;;;;;;;30.50;16.83;;;4.80;98.10;;;;;;8348038;28;20252;-77
2021/11/10 20:11:11;;;;;;;32.13;14.90;;;4.70;98.20;;;;;;8355806;28;20511;-78
2021/11/10 20:15:12;;;;;;;28.00;16.40;;;4.60;98.20;;;;;;8336787;28;20495;-77
2021/11/10 20:19:15;;;;;;;27.57;16.70;;;4.60;98.30;;;;;;8343478;28;20471;-77
2021/11/10 20:23:16;;;;;;;28.73;16.80;;;4.60;98.30;;;;;;8358339;28;20181;-77
2021/11/10 20:27:17;;;;;;;24.17;16.40;;;4.50;98.30;;;;;;8366257;28;20440;-77
2021/11/10 20:31:18;;;;;;;30.67;16.37;;;4.50;98.40;;;;;;8366378;28;20471;-77
2021/11/10 20:35:19;;;;;;;25.40;16.43;;;4.40;98.50;;;;;;8363973;28;20296;-78
2021/11/10 20:39:20;;;;;;;25.43;15.10;;;4.40;98.50;;;;;;8342536;28;20202;-77
2021/11/10 20:43:22;;;;;;;19.50;13.60;;;4.40;98.70;;;;;;8348274;28;20451;-77
2021/11/10 20:47:23;;;;;;;26.97;12.23;;;4.40;98.80;;;;;;8361346;28;20260;-77
2021/11/10 20:51:24;;;;;;;19.97;13.37;;;4.40;98.90;;;;;;8353420;28;20473;-77
2021/11/10 20:55:29;;;;;;;18.40;11.83;;;4.50;98.90;;;;;;8377496;28;20239;-81
2021/11/10 20:59:30;;;;;;;32.93;12.40;;;4.50;98.80;;;;;;8362866;28;20556;-77
2021/11/10 21:03:31;;;;;;;18.40;11.27;;;4.40;98.80;;;;;;8355903;28;20814;-78